Time;durP1;ratioP1;P1;durP2;ratioP2;P2;SDS_P1;SDS_P2;PMS_P1;PMS_P2;Temp;Humidity;BMP_temperature;BMP_pressure;BME280_temperature;BME280_humidity;BME280_pressure;Samples;Min_cycle;Max_cycle;Signal;HPM_P1;HPM_P2
2023/07/13 00:00:15;;;;;;;2.13;1.73;;;16.50;54.90;;;;;;5031970;28;20124;-55
2023/07/13 00:02:41;;;;;;;3.10;1.70;;;16.40;55.10;;;;;;5031700;28;20432;-56
2023/07/13 00:05:07;;;;;;;3.45;1.75;;;16.40;55.80;;;;;;5035102;28;20493;-56
2023/07/13 00:07:32;;;;;;;2.55;1.50;;;16.40;56.20;;;;;;5044550;28;20036;-56
2023/07/13 00:09:59;;;;;;;2.53;2.00;;;16.30;57.00;;;;;;5032365;28;20108;-55
2023/07/13 00:12:36;;;;;;;1.88;1.63;;;16.30;56.70;;;;;;5037713;28;20036;-55
2023/07/13 00:15:07;;;;;;;6.45;2.00;;;16.30;57.90;;;;;;5034595;28;20114;-56
2023/07/13 00:17:32;;;;;;;2.88;1.73;;;16.20;58.30;;;;;;5017868;28;20036;-57
2023/07/13 00:19:58;;;;;;;2.20;1.85;;;16.20;60.20;;;;;;5041441;28;20033;-56
2023/07/13 00:22:27;;;;;;;3.25;1.50;;;16.20;60.40;;;;;;5044831;28;20111;-57
2023/07/13 00:24:56;;;;;;;2.05;1.70;;;16.10;61.20;;;;;;5031134;28;20025;-57
2023/07/13 00:27:21;;;;;;;1.48;1.38;;;16.10;61.50;;;;;;5025258;28;20037;-56
2023/07/13 00:29:47;;;;;;;1.65;1.50;;;16.10;62.20;;;;;;5041525;28;20102;-57
2023/07/13 00:32:12;;;;;;;2.70;1.60;;;16.10;63.90;;;;;;5029330;28;20040;-58
2023/07/13 00:34:38;;;;;;;3.47;2.00;;;16.10;64.30;;;;;;5032608;28;20484;-56
2023/07/13 00:37:08;;;;;;;2.47;1.95;;;16.00;64.50;;;;;;5028646;28;20036;-57
2023/07/13 00:39:35;;;;;;;1.80;1.60;;;16.00;64.80;;;;;;5032564;28;20017;-56
2023/07/13 00:42:02;;;;;;;2.38;1.65;;;16.00;66.70;;;;;;5031447;28;20028;-57
2023/07/13 00:44:28;;;;;;;1.88;1.75;;;16.00;66.70;;;;;;5031797;28;20480;-56
2023/07/13 00:46:55;;;;;;;3.00;1.92;;;16.00;67.40;;;;;;5029825;28;20104;-56
2023/07/13 00:49:22;;;;;;;4.55;1.90;;;16.00;68.40;;;;;;5027891;28;20033;-57
2023/07/13 00:52:01;;;;;;;2.53;1.63;;;16.00;69.20;;;;;;5028252;28;20030;-57
2023/07/13 00:54:31;;;;;;;2.97;1.88;;;16.00;70.50;;;;;;5028752;28;20043;-55
2023/07/13 00:57:01;;;;;;;2.58;1.77;;;16.00;70.60;;;;;;5022744;28;20433;-56
2023/07/13 00:59:27;;;;;;;3.40;1.50;;;16.00;72.00;;;;;;5020024;28;20469;-62
2023/07/13 01:01:54;;;;;;;2.97;1.90;;;16.00;73.30;;;;;;5024669;28;20024;-54
2023/07/13 01:04:20;;;;;;;2.13;1.50;;;16.00;72.60;;;;;;5030143;28;20044;-56
2023/07/13 01:06:46;;;;;;;3.20;1.90;;;16.00;73.30;;;;;;5034097;28;20496;-58
2023/07/13 01:09:13;;;;;;;2.70;2.10;;;16.00;76.50;;;;;;5028997;28;20033;-57
2023/07/13 01:11:41;;;;;;;2.22;1.50;;;15.90;77.50;;;;;;5041980;28;20025;-56
2023/07/13 01:14:07;;;;;;;4.22;2.10;;;15.80;77.40;;;;;;5030211;28;20037;-58
2023/07/13 01:16:35;;;;;;;2.60;1.58;;;15.80;77.00;;;;;;5037293;28;20028;-56
2023/07/13 01:19:03;;;;;;;4.68;1.85;;;15.90;77.30;;;;;;5026428;28;20028;-57
2023/07/13 01:21:30;;;;;;;5.88;1.65;;;15.80;77.20;;;;;;5025469;28;20105;-57
2023/07/13 01:23:56;;;;;;;2.58;1.85;;;15.90;77.50;;;;;;5046506;28;20079;-55
2023/07/13 01:26:21;;;;;;;2.55;1.73;;;15.90;77.90;;;;;;5026901;28;20106;-53
2023/07/13 01:28:47;;;;;;;2.92;2.15;;;15.90;78.10;;;;;;5047218;28;20443;-56
2023/07/13 01:31:12;;;;;;;4.43;1.73;;;15.90;78.80;;;;;;5026660;28;20041;-55
2023/07/13 01:33:40;;;;;;;1.92;1.65;;;15.90;79.10;;;;;;5047166;28;20045;-57
2023/07/13 01:36:07;;;;;;;2.38;1.83;;;15.80;79.50;;;;;;5025383;28;20034;-64
2023/07/13 01:38:33;;;;;;;2.53;2.13;;;15.80;80.00;;;;;;5047366;28;20401;-57
2023/07/13 01:40:59;;;;;;;3.25;2.00;;;15.80;81.40;;;;;;5026854;28;20389;-56
2023/07/13 01:43:24;;;;;;;3.13;2.03;;;15.80;83.40;;;;;;5047224;28;20507;-58
2023/07/13 01:45:50;;;;;;;3.53;2.10;;;15.70;85.80;;;;;;5036955;28;20032;-58
2023/07/13 01:48:15;;;;;;;2.88;2.05;;;15.70;85.00;;;;;;5028521;28;20025;-56
2023/07/13 01:50:41;;;;;;;3.05;1.90;;;15.70;85.00;;;;;;5045172;28;20033;-56
2023/07/13 01:53:07;;;;;;;4.85;1.80;;;15.70;83.90;;;;;;5028118;28;20087;-56
2023/07/13 01:55:33;;;;;;;2.80;2.15;;;15.70;85.00;;;;;;5044967;28;20033;-56
2023/07/13 01:57:58;;;;;;;4.50;2.10;;;15.70;85.20;;;;;;5028072;28;20406;-57
2023/07/13 02:00:24;;;;;;;3.47;2.03;;;15.60;86.40;;;;;;5045085;28;20033;-56
2023/07/13 02:02:50;;;;;;;3.95;1.80;;;15.60;88.00;;;;;;5047803;28;20057;-58
2023/07/13 02:05:16;;;;;;;5.95;2.42;;;15.50;86.50;;;;;;5021997;28;20025;-58
2023/07/13 02:07:42;;;;;;;3.75;1.98;;;15.50;87.50;;;;;;5046807;28;20112;-57
2023/07/13 02:10:09;;;;;;;5.55;2.00;;;15.50;88.00;;;;;;5031784;28;20056;-57
2023/07/13 02:12:34;;;;;;;3.38;2.17;;;15.40;88.10;;;;;;5050993;28;20134;-57
2023/07/13 02:15:00;;;;;;;4.97;1.95;;;15.40;88.30;;;;;;5033377;28;20102;-55
2023/07/13 02:17:26;;;;;;;2.30;1.92;;;15.30;90.00;;;;;;5051259;28;20029;-57
2023/07/13 02:19:52;;;;;;;2.83;2.13;;;15.20;90.50;;;;;;5032179;28;20030;-56
2023/07/13 02:22:18;;;;;;;3.95;2.40;;;15.20;90.30;;;;;;5050782;28;20100;-57
2023/07/13 02:24:43;;;;;;;2.15;1.80;;;15.10;90.50;;;;;;5030858;28;20071;-57
2023/07/13 02:27:09;;;;;;;3.88;1.98;;;15.10;90.50;;;;;;5050913;28;20029;-57
2023/07/13 02:29:34;;;;;;;3.03;1.90;;;15.00;90.90;;;;;;5033343;28;20056;-56
2023/07/13 02:32:00;;;;;;;4.68;2.13;;;14.90;91.40;;;;;;5031030;28;20022;-56
2023/07/13 02:34:25;;;;;;;2.50;2.08;;;14.90;91.50;;;;;;5049858;28;20130;-57
2023/07/13 02:36:51;;;;;;;2.92;1.90;;;14.90;91.70;;;;;;5030047;28;20046;-55
2023/07/13 02:39:17;;;;;;;4.93;2.80;;;14.80;91.90;;;;;;5050027;28;20028;-57
2023/07/13 02:41:42;;;;;;;2.92;1.95;;;14.70;92.10;;;;;;5029316;28;20060;-57
2023/07/13 02:44:08;;;;;;;2.35;2.15;;;14.70;92.60;;;;;;5049706;28;20581;-57
2023/07/13 02:46:35;;;;;;;3.10;2.20;;;14.70;94.60;;;;;;5029561;28;20034;-56
2023/07/13 02:49:01;;;;;;;3.78;2.53;;;14.60;94.40;;;;;;5050010;28;20025;-56
2023/07/13 02:51:27;;;;;;;3.20;2.05;;;14.50;94.80;;;;;;5030371;28;20102;-56
2023/07/13 02:53:52;;;;;;;4.55;2.65;;;14.50;95.10;;;;;;5050624;28;20029;-57
2023/07/13 02:56:23;;;;;;;3.60;2.65;;;14.40;95.00;;;;;;5030862;28;20028;-56
2023/07/13 02:58:48;;;;;;;2.67;2.25;;;14.40;94.90;;;;;;5050953;28;20477;-56
2023/07/13 03:01:18;;;;;;;3.47;2.50;;;14.40;95.30;;;;;;5030219;28;20284;-58
2023/07/13 03:03:45;;;;;;;3.58;2.55;;;14.30;95.50;;;;;;5050549;28;20033;-55
2023/07/13 03:06:11;;;;;;;2.85;2.53;;;14.30;96.40;;;;;;5023013;28;20032;-56
2023/07/13 03:08:36;;;;;;;2.42;2.20;;;14.30;98.10;;;;;;5050281;28;20017;-56
2023/07/13 03:11:04;;;;;;;2.28;2.00;;;14.30;97.90;;;;;;5030850;28;20119;-57
2023/07/13 03:13:30;;;;;;;3.38;2.45;;;14.20;97.30;;;;;;5048106;28;20095;-56
2023/07/13 03:15:56;;;;;;;4.18;2.33;;;14.20;98.70;;;;;;5030747;28;20029;-55
2023/07/13 03:18:21;;;;;;;3.15;2.55;;;14.20;98.40;;;;;;5047491;28;20032;-56
2023/07/13 03:20:50;;;;;;;3.20;1.92;;;14.20;98.00;;;;;;5049653;28;20029;-56
2023/07/13 03:23:16;;;;;;;2.47;2.28;;;14.20;98.80;;;;;;5028150;28;20028;-56
2023/07/13 03:25:42;;;;;;;3.15;2.55;;;14.30;98.90;;;;;;5049482;28;20025;-56
2023/07/13 03:28:07;;;;;;;2.50;2.30;;;14.30;99.30;;;;;;5028747;28;20317;-56
2023/07/13 03:30:33;;;;;;;2.90;2.22;;;14.30;99.80;;;;;;5048974;28;20059;-56
2023/07/13 03:32:58;;;;;;;4.03;2.45;;;14.40;99.70;;;;;;5028440;28;20088;-56
2023/07/13 03:35:24;;;;;;;4.07;2.25;;;14.40;99.10;;;;;;5049298;28;20033;-56
2023/07/13 03:37:49;;;;;;;3.42;2.13;;;14.40;99.00;;;;;;5028588;28;20106;-58
2023/07/13 03:40:15;;;;;;;4.65;2.25;;;14.50;98.90;;;;;;5048870;28;20036;-55
2023/07/13 03:42:40;;;;;;;5.70;2.13;;;14.50;99.30;;;;;;5028400;28;20036;-56
2023/07/13 03:45:07;;;;;;;2.53;2.33;;;14.60;99.00;;;;;;5048821;28;20025;-56
2023/07/13 03:47:32;;;;;;;5.65;2.67;;;14.70;99.00;;;;;;5028127;28;20104;-57
2023/07/13 03:49:58;;;;;;;3.47;1.95;;;14.90;99.10;;;;;;5048707;28;20124;-58
2023/07/13 03:52:23;;;;;;;5.32;2.45;;;15.40;98.80;;;;;;5038430;28;20044;-57
2023/07/13 03:54:48;;;;;;;2.25;2.05;;;15.90;97.80;;;;;;5030061;28;20037;-57
2023/07/13 03:57:14;;;;;;;3.15;2.00;;;16.50;96.00;;;;;;5046601;28;20575;-56
2023/07/13 03:59:39;;;;;;;5.35;2.40;;;17.10;94.40;;;;;;5029856;28;20022;-56
2023/07/13 04:02:05;;;;;;;3.15;1.88;;;17.60;92.90;;;;;;5046608;28;20124;-55
2023/07/13 04:04:31;;;;;;;5.47;1.95;;;18.20;91.30;;;;;;5031140;28;20028;-56
2023/07/13 04:06:58;;;;;;;2.10;1.90;;;18.70;89.90;;;;;;5041484;28;20065;-57
2023/07/13 04:09:24;;;;;;;2.78;1.90;;;19.10;87.00;;;;;;5049187;28;20087;-57
2023/07/13 04:11:49;;;;;;;3.40;1.80;;;19.60;84.70;;;;;;5033586;28;20021;-56
2023/07/13 04:14:15;;;;;;;2.65;2.10;;;20.10;82.00;;;;;;5049097;28;20093;-64
2023/07/13 04:16:41;;;;;;;2.22;2.03;;;20.60;80.20;;;;;;5032474;28;20021;-64
2023/07/13 04:19:07;;;;;;;6.35;1.85;;;21.10;78.20;;;;;;5048899;28;20061;-64
2023/07/13 04:21:32;;;;;;;4.70;1.98;;;21.50;75.50;;;;;;5031254;28;20556;-64
2023/07/13 04:23:58;;;;;;;1.60;1.48;;;21.90;73.70;;;;;;5048969;28;20108;-64
2023/07/13 04:26:24;;;;;;;2.25;1.63;;;22.40;71.70;;;;;;5029962;28;20397;-63
2023/07/13 04:28:50;;;;;;;3.45;1.55;;;23.00;69.90;;;;;;5048874;28;20097;-63
2023/07/13 04:31:16;;;;;;;3.38;1.55;;;23.50;67.60;;;;;;5028642;28;20048;-64
2023/07/13 04:33:42;;;;;;;3.08;1.77;;;24.10;64.90;;;;;;5047951;28;20029;-64
2023/07/13 04:36:09;;;;;;;3.20;1.98;;;24.50;62.50;;;;;;5027507;28;20037;-62
2023/07/13 04:38:35;;;;;;;2.28;1.70;;;25.00;60.90;;;;;;5047347;28;20397;-65
2023/07/13 04:41:03;;;;;;;2.95;1.50;;;25.50;59.00;;;;;;5029169;28;20029;-64
2023/07/13 04:43:30;;;;;;;1.67;1.58;;;25.90;56.80;;;;;;5046421;28;20480;-63
2023/07/13 04:45:56;;;;;;;2.63;1.42;;;26.30;55.10;;;;;;5029021;28;20036;-63
2023/07/13 04:48:22;;;;;;;1.42;1.27;;;26.70;53.10;;;;;;5046161;28;20210;-64
2023/07/13 04:50:48;;;;;;;2.10;1.50;;;27.20;51.20;;;;;;5048349;28;20805;-64
2023/07/13 04:53:13;;;;;;;2.65;1.63;;;27.60;49.10;;;;;;5027223;28;20037;-63
2023/07/13 04:55:40;;;;;;;3.95;2.13;;;27.90;46.60;;;;;;5047690;28;20246;-63
2023/07/13 04:58:06;;;;;;;3.92;1.90;;;28.30;44.00;;;;;;5026897;28;20509;-64
2023/07/13 05:00:32;;;;;;;3.63;2.55;;;28.80;42.10;;;;;;5047671;28;20032;-64
2023/07/13 05:02:58;;;;;;;4.20;1.80;;;29.10;39.90;;;;;;5027467;28;20150;-63
2023/07/13 05:05:25;;;;;;;3.03;2.25;;;29.50;38.70;;;;;;5031839;28;20507;-64
2023/07/13 05:07:52;;;;;;;5.13;1.90;;;29.70;35.90;;;;;;5030242;28;20497;-64
2023/07/13 05:10:17;;;;;;;3.70;2.08;;;29.90;33.80;;;;;;5045573;28;20043;-63
2023/07/13 05:12:43;;;;;;;5.43;2.00;;;30.20;33.00;;;;;;5025862;28;20042;-63
2023/07/13 05:15:09;;;;;;;2.25;1.80;;;30.60;31.30;;;;;;5045183;28;20355;-63
2023/07/13 05:17:35;;;;;;;2.25;1.70;;;31.00;29.80;;;;;;5024403;28;20536;-64
2023/07/13 05:20:00;;;;;;;2.85;1.85;;;31.30;28.40;;;;;;5033765;28;20039;-64
2023/07/13 05:22:26;;;;;;;3.15;1.80;;;31.60;27.10;;;;;;5025343;28;20030;-64
2023/07/13 05:24:51;;;;;;;3.70;2.15;;;32.00;25.50;;;;;;5044837;28;20037;-64
2023/07/13 05:27:17;;;;;;;2.25;1.92;;;32.30;24.40;;;;;;5008301;28;20069;-66
2023/07/13 05:29:42;;;;;;;3.40;1.92;;;32.60;23.50;;;;;;5040785;28;20136;-64
2023/07/13 05:32:08;;;;;;;3.60;2.20;;;32.80;22.30;;;;;;5040633;28;20037;-64
2023/07/13 05:34:33;;;;;;;3.97;2.00;;;33.00;21.10;;;;;;5045279;28;20396;-64
2023/07/13 05:36:59;;;;;;;4.43;2.30;;;33.30;20.20;;;;;;5024225;28;20021;-63
2023/07/13 05:39:26;;;;;;;3.17;1.95;;;33.60;19.50;;;;;;5044767;28;20043;-64
2023/07/13 05:41:51;;;;;;;3.13;1.80;;;33.80;19.30;;;;;;5024127;28;20562;-64
2023/07/13 05:44:17;;;;;;;4.25;2.03;;;34.10;17.90;;;;;;5029011;28;20116;-64
2023/07/13 05:46:42;;;;;;;5.15;2.03;;;34.40;17.00;;;;;;5021015;28;20042;-64
2023/07/13 05:49:08;;;;;;;2.97;1.60;;;34.70;16.20;;;;;;5043267;28;20048;-63
2023/07/13 05:51:33;;;;;;;4.05;1.88;;;35.00;15.30;;;;;;5027042;28;20244;-65
2023/07/13 05:53:58;;;;;;;2.42;1.67;;;35.50;14.60;;;;;;5027818;28;20063;-64
2023/07/13 05:56:25;;;;;;;2.85;1.65;;;35.80;13.90;;;;;;5030187;28;20033;-65
2023/07/13 05:58:50;;;;;;;4.05;2.20;;;35.80;13.30;;;;;;5029797;28;20033;-63
2023/07/13 06:01:17;;;;;;;4.18;1.90;;;36.00;12.60;;;;;;5030403;28;20378;-63
2023/07/13 06:03:42;;;;;;;3.10;1.80;;;36.20;11.90;;;;;;5032738;28;20091;-63
2023/07/13 06:06:09;;;;;;;3.45;1.60;;;36.70;11.30;;;;;;5046881;28;20653;-62
2023/07/13 06:08:35;;;;;;;3.70;1.85;;;37.20;10.60;;;;;;5029206;28;20034;-62
2023/07/13 06:11:13;;;;;;;4.57;1.80;;;37.60;10.10;;;;;;5049831;28;20444;-62
2023/07/13 06:13:39;;;;;;;3.92;1.70;;;37.80;7.30;;;;;;5022818;28;20030;-63
2023/07/13 06:16:04;;;;;;;3.72;1.60;;;38.00;8.50;;;;;;5049861;28;20099;-63
2023/07/13 06:18:32;;;;;;;2.08;1.30;;;38.30;8.20;;;;;;5029385;28;20116;-63
2023/07/13 06:20:57;;;;;;;2.30;1.33;;;38.70;7.60;;;;;;5049771;28;20486;-62
2023/07/13 06:23:24;;;;;;;3.00;1.70;;;38.80;6.80;;;;;;5025972;28;20056;-63
2023/07/13 06:25:49;;;;;;;1.92;1.40;;;39.00;6.60;;;;;;5036110;28;20412;-63
2023/07/13 06:28:15;;;;;;;2.90;1.33;;;39.30;6.10;;;;;;5034876;28;20029;-63
2023/07/13 06:30:40;;;;;;;4.28;1.30;;;39.60;5.70;;;;;;5043631;28;20049;-62
2023/07/13 06:33:06;;;;;;;2.25;1.48;;;39.90;5.40;;;;;;5029402;28;20033;-63
2023/07/13 06:35:31;;;;;;;1.55;1.00;;;40.20;4.70;;;;;;5050690;28;20051;-62
2023/07/13 06:37:57;;;;;;;1.20;0.90;;;40.20;3.80;;;;;;5045359;28;20033;-62
2023/07/13 06:40:22;;;;;;;2.13;1.20;;;40.50;3.70;;;;;;5035726;28;20040;-62
2023/07/13 06:42:48;;;;;;;2.55;1.00;;;40.90;3.10;;;;;;5049220;28;20029;-63
2023/07/13 06:45:13;;;;;;;1.55;1.20;;;41.20;2.80;;;;;;5034427;28;20029;-65
2023/07/13 06:47:39;;;;;;;4.50;0.93;;;41.50;2.30;;;;;;5049989;28;20582;-64
2023/07/13 06:50:08;;;;;;;1.85;0.80;;;41.80;1.90;;;;;;5036299;28;20033;-64
2023/07/13 06:52:34;;;;;;;2.05;1.08;;;41.80;1.50;;;;;;5038403;28;20493;-65
2023/07/13 06:54:59;;;;;;;1.30;0.80;;;41.90;1.10;;;;;;5050091;28;20095;-64
2023/07/13 06:57:25;;;;;;;1.35;0.93;;;42.10;1.00;;;;;;5027902;28;20035;-62
2023/07/13 06:59:50;;;;;;;2.53;1.10;;;42.50;1.00;;;;;;5049338;28;20112;-62
2023/07/13 07:02:16;;;;;;;1.25;1.08;;;42.60;1.00;;;;;;5028844;28;20044;-62
2023/07/13 07:04:41;;;;;;;2.28;1.20;;;43.00;1.00;;;;;;5048500;28;20107;-62
2023/07/13 07:07:07;;;;;;;1.45;0.90;;;42.90;1.00;;;;;;5022644;28;20042;-61
2023/07/13 07:09:32;;;;;;;2.55;1.00;;;43.20;1.00;;;;;;5033294;28;20346;-62
2023/07/13 07:11:57;;;;;;;1.33;0.88;;;43.40;1.00;;;;;;5036991;28;20036;-61
2023/07/13 07:14:23;;;;;;;1.30;1.00;;;43.40;1.00;;;;;;5035124;28;20122;-62
2023/07/13 07:16:49;;;;;;;1.80;1.00;;;43.50;1.00;;;;;;5044091;28;20031;-62
2023/07/13 07:19:16;;;;;;;1.63;0.80;;;43.70;1.00;;;;;;5044869;28;20628;-62
2023/07/13 07:21:41;;;;;;;1.00;0.70;;;44.00;1.00;;;;;;5049497;28;20060;-63
2023/07/13 07:24:07;;;;;;;2.35;0.93;;;44.10;1.00;;;;;;5020573;28;20459;-65
2023/07/13 07:26:33;;;;;;;1.75;0.90;;;44.10;1.00;;;;;;5027573;28;20103;-63
2023/07/13 07:28:58;;;;;;;2.05;0.80;;;44.20;1.00;;;;;;5029955;28;20025;-61
2023/07/13 07:31:23;;;;;;;2.53;0.85;;;44.40;1.00;;;;;;5029600;28;20061;-62
2023/07/13 07:33:52;;;;;;;2.40;1.02;;;44.20;1.00;;;;;;5018171;28;20034;-62
2023/07/13 07:36:17;;;;;;;1.40;0.77;;;44.30;1.00;;;;;;5035285;28;20029;-62
2023/07/13 07:38:43;;;;;;;2.50;1.45;;;44.50;1.00;;;;;;5027277;28;20026;-60
2023/07/13 07:41:09;;;;;;;1.23;1.00;;;44.50;1.00;;;;;;5030020;28;20550;-56
2023/07/13 07:43:36;;;;;;;1.67;0.80;;;44.40;1.00;;;;;;5029826;28;20484;-62
2023/07/13 07:46:02;;;;;;;0.85;0.80;;;44.50;1.00;;;;;;5034663;28;20033;-62
2023/07/13 07:48:27;;;;;;;1.35;0.73;;;44.70;1.00;;;;;;5025253;28;20504;-62
2023/07/13 07:50:53;;;;;;;2.65;0.98;;;44.00;1.00;;;;;;5036043;28;20029;-62
2023/07/13 07:53:18;;;;;;;1.73;0.73;;;44.20;1.00;;;;;;5024154;28;20048;-62
2023/07/13 07:55:45;;;;;;;2.35;0.90;;;44.10;1.00;;;;;;5039095;28;20049;-62
2023/07/13 07:58:10;;;;;;;1.20;0.60;;;44.50;1.00;;;;;;5048171;28;20043;-62
2023/07/13 08:00:36;;;;;;;1.48;0.52;;;44.80;1.00;;;;;;5033779;28;20032;-62
2023/07/13 08:03:02;;;;;;;0.98;0.60;;;45.00;1.00;;;;;;5048750;28;20070;-61
2023/07/13 08:05:28;;;;;;;1.08;0.60;;;44.80;1.00;;;;;;5026167;28;20045;-62
2023/07/13 08:07:53;;;;;;;1.15;0.60;;;44.70;1.00;;;;;;5048145;28;20061;-62
2023/07/13 08:10:19;;;;;;;0.95;0.68;;;44.40;1.00;;;;;;5027168;28;20033;-62
2023/07/13 08:12:44;;;;;;;0.77;0.63;;;44.20;1.00;;;;;;5028802;28;20033;-61
2023/07/13 08:15:17;;;;;;;1.08;0.60;;;44.10;1.00;;;;;;5042563;28;20040;-61
2023/07/13 08:17:42;;;;;;;1.40;0.80;;;44.10;1.00;;;;;;5022472;28;20045;-62
2023/07/13 08:20:09;;;;;;;0.85;0.70;;;44.10;1.00;;;;;;5030716;28;20037;-62
2023/07/13 08:22:35;;;;;;;2.20;0.85;;;44.00;1.00;;;;;;5019560;28;20514;-62
2023/07/13 08:25:01;;;;;;;1.05;0.70;;;43.70;1.00;;;;;;5030140;28;20501;-61
2023/07/13 08:27:28;;;;;;;1.27;0.80;;;43.60;1.00;;;;;;5016765;28;20045;-61
2023/07/13 08:29:53;;;;;;;1.70;1.00;;;43.60;1.00;;;;;;5043736;28;20083;-62
2023/07/13 08:32:21;;;;;;;2.28;0.80;;;43.10;1.00;;;;;;5025639;28;20060;-61
2023/07/13 08:34:47;;;;;;;3.22;1.00;;;42.70;1.00;;;;;;5034805;28;20029;-62
2023/07/13 08:37:12;;;;;;;2.28;0.70;;;41.80;1.00;;;;;;5032456;28;20046;-61
2023/07/13 08:39:38;;;;;;;2.42;0.80;;;40.40;1.00;;;;;;5026504;28;20037;-61
2023/07/13 08:42:29;;;;;;;2.53;0.93;;;39.00;1.00;;;;;;5033462;28;20029;-61
2023/07/13 08:45:25;;;;;;;2.58;0.88;;;37.90;1.00;;;;;;5021911;28;20504;-61
2023/07/13 08:48:01;;;;;;;3.50;0.88;;;37.00;1.00;;;;;;5022008;28;20064;-61
2023/07/13 08:50:33;;;;;;;0.98;0.60;;;36.50;1.00;;;;;;5022046;28;20112;-62
2023/07/13 08:52:58;;;;;;;2.13;0.80;;;36.20;1.00;;;;;;5036931;28;20080;-61
2023/07/13 08:55:29;;;;;;;1.48;0.68;;;35.70;1.00;;;;;;5041135;28;20550;-62
2023/07/13 08:58:09;;;;;;;2.25;0.80;;;35.20;1.00;;;;;;5020706;28;20059;-62
2023/07/13 09:00:55;;;;;;;1.98;1.10;;;34.70;1.00;;;;;;5026806;28;20040;-61
2023/07/13 09:03:24;;;;;;;1.30;0.82;;;34.30;1.00;;;;;;5021151;28;20041;-61
2023/07/13 09:05:56;;;;;;;3.10;1.00;;;34.10;1.00;;;;;;5032409;28;20048;-62
2023/07/13 09:08:31;;;;;;;3.22;1.02;;;33.90;1.10;;;;;;5023787;28;20041;-61
2023/07/13 09:11:27;;;;;;;2.55;1.05;;;33.70;1.30;;;;;;5020375;28;20120;-61
2023/07/13 09:14:26;;;;;;;2.72;0.88;;;33.60;2.10;;;;;;5025092;28;20048;-63
2023/07/13 09:16:53;;;;;;;3.33;0.93;;;33.60;2.40;;;;;;5021082;28;20100;-62
2023/07/13 09:19:26;;;;;;;1.10;0.70;;;33.60;1.80;;;;;;5036616;28;20040;-61
2023/07/13 09:21:54;;;;;;;1.00;0.80;;;33.60;2.20;;;;;;5032752;28;20039;-62
2023/07/13 09:24:34;;;;;;;2.42;1.20;;;33.60;2.10;;;;;;5029686;28;20520;-63
2023/07/13 09:27:00;;;;;;;1.20;0.70;;;33.20;1.90;;;;;;5027970;28;20091;-61
2023/07/13 09:29:33;;;;;;;1.50;0.82;;;32.70;2.50;;;;;;5044755;28;20036;-61
2023/07/13 09:32:03;;;;;;;2.08;0.85;;;32.30;2.70;;;;;;5041836;28;20018;-61
2023/07/13 09:34:30;;;;;;;3.03;1.10;;;32.10;2.80;;;;;;5031288;28;20045;-61
2023/07/13 09:36:56;;;;;;;2.78;0.95;;;31.90;3.00;;;;;;5038151;28;20090;-60
2023/07/13 09:39:38;;;;;;;1.55;0.93;;;31.90;3.20;;;;;;5042085;28;20071;-61
2023/07/13 09:42:15;;;;;;;1.40;0.93;;;32.00;3.60;;;;;;5026271;28;20119;-61
2023/07/13 09:44:53;;;;;;;1.33;0.77;;;32.20;4.10;;;;;;5014996;28;20052;-62
2023/07/13 09:47:27;;;;;;;3.40;1.00;;;32.40;3.60;;;;;;5027298;28;20029;-62
2023/07/13 09:50:05;;;;;;;1.77;0.80;;;32.50;2.70;;;;;;5028122;28;20056;-62
2023/07/13 09:52:41;;;;;;;1.17;0.80;;;32.30;2.10;;;;;;5023549;28;20041;-62
2023/07/13 09:55:22;;;;;;;1.52;0.77;;;32.30;2.70;;;;;;5019250;28;20413;-61
2023/07/13 09:57:48;;;;;;;0.70;0.70;;;32.30;2.00;;;;;;5026246;28;20377;-62
2023/07/13 10:00:25;;;;;;;1.05;0.95;;;32.40;2.20;;;;;;5032023;28;20029;-61
2023/07/13 10:03:19;;;;;;;1.48;1.10;;;32.30;1.90;;;;;;5017875;28;20029;-62
2023/07/13 10:05:47;;;;;;;1.55;1.10;;;31.70;1.90;;;;;;5021924;28;20044;-61
2023/07/13 10:08:27;;;;;;;1.00;0.90;;;31.70;2.00;;;;;;5025525;28;20060;-61
2023/07/13 10:11:14;;;;;;;1.85;1.10;;;31.70;2.20;;;;;;5024201;28;20150;-62
2023/07/13 10:13:55;;;;;;;1.60;1.00;;;31.70;2.10;;;;;;5047611;28;20041;-61
2023/07/13 10:16:22;;;;;;;1.38;1.00;;;31.60;2.20;;;;;;5032082;28;20032;-62
2023/07/13 10:18:58;;;;;;;2.03;1.27;;;31.40;2.00;;;;;;5050581;28;20071;-62
2023/07/13 10:21:30;;;;;;;1.70;0.90;;;31.30;1.90;;;;;;5012035;28;20021;-62
2023/07/13 10:24:05;;;;;;;3.95;0.98;;;31.20;1.80;;;;;;5030813;28;20468;-60
2023/07/13 10:26:34;;;;;;;2.88;1.23;;;31.10;1.80;;;;;;5019290;28;20367;-62
2023/07/13 10:29:06;;;;;;;2.60;1.20;;;30.80;1.90;;;;;;5050161;28;20033;-59
2023/07/13 10:31:34;;;;;;;1.70;1.23;;;30.80;2.10;;;;;;5018360;28;20107;-62
2023/07/13 10:34:00;;;;;;;5.07;1.40;;;30.90;2.10;;;;;;5048360;28;20078;-61
2023/07/13 10:36:38;;;;;;;1.27;0.95;;;30.60;2.30;;;;;;5047730;28;20037;-61
2023/07/13 10:39:06;;;;;;;0.85;0.82;;;30.50;2.40;;;;;;5050331;28;20485;-61
2023/07/13 10:41:36;;;;;;;5.75;1.30;;;30.40;2.50;;;;;;5034097;28;20024;-61
2023/07/13 10:44:04;;;;;;;4.38;1.05;;;30.40;2.90;;;;;;5050467;28;20033;-61
2023/07/13 10:46:30;;;;;;;2.92;1.20;;;30.30;3.00;;;;;;5033578;28;20017;-62
2023/07/13 10:49:00;;;;;;;1.83;1.15;;;30.30;3.00;;;;;;5050448;28;20021;-59
2023/07/13 10:51:28;;;;;;;2.88;1.40;;;30.20;3.20;;;;;;5010646;28;20064;-62
2023/07/13 10:54:22;;;;;;;2.85;1.40;;;30.10;3.80;;;;;;5015683;28;20518;-61
2023/07/13 10:56:51;;;;;;;2.20;1.15;;;30.00;4.10;;;;;;5023412;28;20116;-62
2023/07/13 10:59:28;;;;;;;4.25;2.10;;;29.90;3.40;;;;;;5028619;28;20025;-62
2023/07/13 11:02:26;;;;;;;2.60;1.50;;;29.70;3.90;;;;;;5019084;28;20022;-62
2023/07/13 11:04:53;;;;;;;1.95;1.73;;;29.50;4.80;;;;;;5029003;28;20025;-62
2023/07/13 11:07:28;;;;;;;1.88;1.42;;;29.50;4.20;;;;;;5029480;28;20497;-62
2023/07/13 11:10:03;;;;;;;1.55;1.30;;;29.50;4.50;;;;;;5019812;28;20489;-62
2023/07/13 11:12:53;;;;;;;2.10;1.50;;;29.40;4.30;;;;;;5018978;28;20048;-62
2023/07/13 11:15:44;;;;;;;2.97;1.55;;;29.20;5.00;;;;;;5024351;28;20044;-62
2023/07/13 11:18:24;;;;;;;3.70;1.50;;;29.10;5.50;;;;;;5024339;28;20395;-61
2023/07/13 11:20:50;;;;;;;3.92;1.70;;;28.90;5.20;;;;;;5029797;28;20029;-61
2023/07/13 11:23:19;;;;;;;2.95;2.15;;;28.80;5.20;;;;;;5029452;28;20045;-62
2023/07/13 11:25:45;;;;;;;4.10;1.52;;;28.80;5.40;;;;;;5032340;28;20137;-62
2023/07/13 11:28:10;;;;;;;3.30;1.60;;;28.80;5.50;;;;;;5027172;28;20720;-62
2023/07/13 11:30:43;;;;;;;2.88;1.70;;;28.70;5.40;;;;;;5028657;28;20042;-61
2023/07/13 11:33:17;;;;;;;4.72;1.33;;;28.60;5.30;;;;;;5027060;28;20069;-61
2023/07/13 11:35:57;;;;;;;3.13;1.40;;;28.60;5.70;;;;;;5044518;28;20028;-64
2023/07/13 11:38:32;;;;;;;2.47;1.15;;;28.60;5.10;;;;;;5027510;28;20033;-64
2023/07/13 11:41:02;;;;;;;5.68;1.73;;;28.70;4.70;;;;;;5022856;28;20025;-62
2023/07/13 11:43:28;;;;;;;2.97;1.42;;;28.80;4.50;;;;;;5026809;28;20037;-63
2023/07/13 11:45:53;;;;;;;3.63;1.42;;;28.80;4.60;;;;;;5031230;28;20492;-63
2023/07/13 11:48:21;;;;;;;2.78;1.42;;;28.60;4.10;;;;;;5028031;28;20025;-63
2023/07/13 11:51:04;;;;;;;3.35;1.48;;;28.40;4.00;;;;;;5028624;28;20025;-63
2023/07/13 11:53:40;;;;;;;2.70;1.80;;;28.20;4.20;;;;;;5009314;28;20053;-63
2023/07/13 11:56:06;;;;;;;3.15;1.33;;;28.00;4.80;;;;;;5016248;28;20035;-63
2023/07/13 11:58:32;;;;;;;5.93;1.80;;;28.00;4.80;;;;;;5048355;28;20095;-63
2023/07/13 12:01:00;;;;;;;3.38;1.50;;;28.00;4.70;;;;;;5026982;28;20448;-62
2023/07/13 12:03:26;;;;;;;2.45;1.52;;;28.00;4.80;;;;;;5048523;28;20021;-63
2023/07/13 12:06:16;;;;;;;2.42;1.40;;;28.00;4.80;;;;;;5032500;28;20456;-56
2023/07/13 12:08:41;;;;;;;2.05;1.45;;;28.00;5.40;;;;;;5008969;28;20033;-57
2023/07/13 12:11:16;;;;;;;2.45;1.50;;;27.90;5.20;;;;;;5023393;28;20082;-57
2023/07/13 12:13:44;;;;;;;2.47;1.30;;;27.80;5.40;;;;;;5016873;28;20044;-57
2023/07/13 12:16:23;;;;;;;2.08;1.63;;;27.90;5.50;;;;;;5026525;28;20280;-63
2023/07/13 12:18:52;;;;;;;2.50;1.50;;;27.90;5.40;;;;;;5027595;28;20393;-63
2023/07/13 12:21:19;;;;;;;1.75;1.60;;;28.00;5.40;;;;;;5035721;28;20458;-63
2023/07/13 12:23:49;;;;;;;2.10;1.42;;;28.10;5.30;;;;;;5024668;28;20025;-62
2023/07/13 12:26:15;;;;;;;1.70;1.10;;;28.30;5.10;;;;;;5026431;28;20389;-61
2023/07/13 12:28:52;;;;;;;1.33;1.02;;;28.40;4.20;;;;;;5038152;28;20040;-62
2023/07/13 12:31:30;;;;;;;1.38;1.25;;;28.40;3.60;;;;;;5025997;28;20509;-62
2023/07/13 12:33:58;;;;;;;4.93;1.48;;;28.40;4.00;;;;;;5014315;28;20129;-61
2023/07/13 12:36:24;;;;;;;2.25;1.35;;;28.30;4.20;;;;;;5026436;28;20093;-62
2023/07/13 12:38:51;;;;;;;2.35;1.52;;;28.30;4.40;;;;;;5026709;28;20065;-62
2023/07/13 12:41:17;;;;;;;2.35;1.27;;;28.40;4.40;;;;;;5026246;28;20041;-62
2023/07/13 12:43:44;;;;;;;1.75;1.50;;;28.40;4.20;;;;;;5025912;28;20083;-60
2023/07/13 12:46:23;;;;;;;3.22;1.45;;;28.30;4.20;;;;;;5025085;28;20033;-60
2023/07/13 12:48:52;;;;;;;4.10;1.90;;;28.30;4.10;;;;;;5026442;28;20029;-60
2023/07/13 12:51:20;;;;;;;1.90;1.30;;;28.20;4.00;;;;;;5026851;28;20103;-60
2023/07/13 12:53:50;;;;;;;3.75;1.73;;;28.30;4.40;;;;;;5035013;28;20095;-60
2023/07/13 12:56:22;;;;;;;2.05;1.60;;;28.20;4.60;;;;;;5026956;28;20489;-60
2023/07/13 12:58:54;;;;;;;2.58;1.65;;;28.20;4.70;;;;;;5023745;28;20064;-60